This is the latest recevied weather packets stored in our database for station/object KMASWX. If no packets are shown the sender has not sent any weather packets the latest 10 day(s).
| Time | Temp. | Humidity | Pressure | Rain* | Wind** | Luminosity | Snow |
|---|---|---|---|---|---|---|---|
| 1777822403 | 12.78° C | 54% | - | 0 mm | - | - | - |
| 1777821796 | 12.22° C | 56% | - | 0 mm | - | - | - |
| 1777821492 | 12.22° C | 57% | - | 0 mm | - | - | - |
| 1777820882 | 11.67° C | 60% | - | 0 mm | - | - | - |
| 1777820579 | 11.67° C | 60% | - | 0 mm | - | - | - |
| 1777820272 | 11.67° C | 59% | - | 0 mm | - | - | - |
| 1777819969 | 12.22° C | 58% | - | 0 mm | - | - | - |
| 1777819664 | 12.78° C | 55% | - | 0 mm | - | - | - |
| 1777819358 | 13.33° C | 55% | - | 0 mm | - | - | - |
| 1777819054 | 12.22° C | 58% | - | 0 mm | - | - | - |
| 1777818750 | 11.67° C | 58% | - | 0 mm | - | - | - |
| 1777818140 | 11.67° C | 60% | - | 0 mm | - | - | - |
| 1777817533 | 10.56° C | 62% | - | 0 mm | - | - | - |
| 1777817230 | 10° C | 62% | - | 0 mm | - | - | - |
| 1777816923 | 9.44° C | 63% | - | 0 mm | - | - | - |
| 1777816620 | 9.44° C | 64% | - | 0 mm | - | - | - |
| 1777816316 | 8.89° C | 65% | - | 0 mm | - | - | - |
| 1777816010 | 8.33° C | 66% | - | 0 mm | - | - | - |
| 1777815706 | 7.78° C | 65% | - | 0 mm | - | - | - |
| 1777815402 | 8.33° C | 65% | - | 0 mm | - | - | - |
| 1777815095 | 7.78° C | 66% | - | 0 mm | - | - | - |
| 1777814792 | 7.22° C | 66% | - | 0 mm | - | - | - |
| 1777813874 | 7.78° C | 65% | - | 0 mm | - | - | - |
| 1777813266 | 7.78° C | 65% | - | 0 mm | - | - | - |
| 1777812962 | 7.78° C | 64% | - | 0 mm | - | - | - |
* Rain latest 24 hours (hover to see other rain measurements)
** Current wind speed in m/s (hover to see current wind gust speed)